createdAt,value
2019-02-14T00:00:56.265Z,-1.37
2019-02-14T00:04:09.717Z,-1.32
2019-02-14T00:07:23.208Z,-1.34
2019-02-14T00:10:36.998Z,-1.31
2019-02-14T00:13:50.487Z,-1.50
2019-02-14T00:17:04.088Z,-1.62
2019-02-14T00:20:17.570Z,-1.61
2019-02-14T00:23:31.053Z,-1.57
2019-02-14T00:26:44.649Z,-1.53
2019-02-14T00:29:58.133Z,-1.49
2019-02-14T00:33:11.995Z,-1.47
2019-02-14T00:36:25.483Z,-1.45
2019-02-14T00:39:38.973Z,-1.49
2019-02-14T00:42:52.447Z,-1.52
2019-02-14T00:46:06.251Z,-1.56
2019-02-14T00:49:19.832Z,-1.66
2019-02-14T00:52:33.328Z,-1.65
2019-02-14T00:55:46.807Z,-1.70
2019-02-14T00:59:00.559Z,-1.72
2019-02-14T01:02:14.056Z,-1.70
2019-02-14T01:05:33.330Z,-1.69
2019-02-14T01:08:42.936Z,-1.66
2019-02-14T01:11:56.514Z,-1.67
2019-02-14T01:15:10.268Z,-1.82
2019-02-14T01:18:24.209Z,-1.77
2019-02-14T01:21:37.698Z,-1.88
2019-02-14T01:24:51.180Z,-1.98
2019-02-14T01:28:04.779Z,-1.88
2019-02-14T01:31:18.361Z,-1.87
2019-02-14T01:34:31.963Z,-1.87
2019-02-14T01:37:45.883Z,-1.85
2019-02-14T01:40:59.481Z,-1.82
2019-02-14T01:44:13.292Z,-1.85
2019-02-14T01:47:26.783Z,-1.85
2019-02-14T01:50:40.542Z,-1.85
2019-02-14T01:53:54.025Z,-1.91
2019-02-14T01:57:07.828Z,-2.12
2019-02-14T02:00:21.545Z,-2.08
2019-02-14T02:03:35.043Z,-2.12
2019-02-14T02:06:48.806Z,-2.27
2019-02-14T02:10:02.556Z,-2.19
2019-02-14T02:13:16.060Z,-2.13
2019-02-14T02:16:29.955Z,-2.10
2019-02-14T02:19:43.743Z,-2.11
2019-02-14T02:22:57.795Z,-2.10
2019-02-14T02:26:11.377Z,-2.13
2019-02-14T02:29:24.958Z,-2.18
2019-02-14T02:32:38.463Z,-2.27
2019-02-14T02:36:00.172Z,-2.38
2019-02-14T02:39:07.638Z,-2.30
2019-02-14T02:42:21.772Z,-2.24
2019-02-14T02:45:35.568Z,-2.24
2019-02-14T02:48:49.158Z,-2.24
2019-02-14T02:52:02.732Z,-2.21
2019-02-14T02:55:16.420Z,-2.23
2019-02-14T02:58:29.911Z,-2.24
2019-02-14T03:01:43.439Z,-2.36
2019-02-14T03:04:56.902Z,-2.35
2019-02-14T03:08:10.742Z,-2.30
2019-02-14T03:11:24.207Z,-2.25
2019-02-14T03:14:37.700Z,-2.35
2019-02-14T03:17:51.180Z,-2.39
2019-02-14T03:21:04.783Z,-2.36
2019-02-14T03:24:18.267Z,-2.33
2019-02-14T03:27:31.745Z,-2.29
2019-02-14T03:30:45.341Z,-2.26
2019-02-14T03:33:59.124Z,-2.36
2019-02-14T03:37:12.604Z,-2.40
2019-02-14T03:40:26.093Z,-2.40
2019-02-14T03:43:39.570Z,-2.38
2019-02-14T03:46:53.154Z,-2.53
2019-02-14T03:50:07.756Z,-2.58
2019-02-14T03:53:21.758Z,-2.54
2019-02-14T03:56:35.842Z,-2.54
2019-02-14T03:59:49.331Z,-2.49
2019-02-14T04:03:02.910Z,-2.63
2019-02-14T04:06:16.407Z,-2.65
2019-02-14T04:09:30.176Z,-2.60
2019-02-14T04:12:43.911Z,-2.55
2019-02-14T04:15:57.408Z,-2.49
2019-02-14T04:19:10.887Z,-2.49
2019-02-14T04:22:24.375Z,-2.47
2019-02-14T04:25:37.862Z,-2.64
2019-02-14T04:28:51.479Z,-2.54
2019-02-14T04:32:24.628Z,-2.56
2019-02-14T04:35:38.851Z,-2.57
2019-02-14T04:38:52.359Z,-2.52
2019-02-14T04:42:05.856Z,-2.71
2019-02-14T04:45:19.686Z,-2.79
2019-02-14T04:48:33.176Z,-2.85
2019-02-14T04:51:46.647Z,-2.79
2019-02-14T04:55:00.304Z,-2.77
2019-02-14T04:58:13.825Z,-2.80
2019-02-14T05:01:27.310Z,-2.75
2019-02-14T05:04:41.081Z,-2.98
2019-02-14T05:07:54.880Z,-2.94
2019-02-14T05:11:08.371Z,-2.89
2019-02-14T05:14:22.124Z,-2.99
2019-02-14T05:17:35.862Z,-2.83
2019-02-14T05:20:49.358Z,-2.82
2019-02-14T05:24:03.056Z,-2.78
2019-02-14T05:27:16.865Z,-2.78
2019-02-14T05:30:30.455Z,-2.78
2019-02-14T05:33:43.941Z,-2.81
2019-02-14T05:36:57.448Z,-2.82
2019-02-14T05:40:11.550Z,-2.81
2019-02-14T05:43:25.027Z,-2.87
2019-02-14T05:46:38.521Z,-3.06
2019-02-14T05:49:52.012Z,-3.11
2019-02-14T05:53:05.489Z,-3.08
2019-02-14T05:56:18.980Z,-3.06
2019-02-14T05:59:32.453Z,-3.13
2019-02-14T06:02:46.140Z,-3.04
2019-02-14T06:05:59.629Z,-2.98
2019-02-14T06:09:13.422Z,-2.95
2019-02-14T06:12:26.915Z,-2.97
2019-02-14T06:15:40.410Z,-2.98
2019-02-14T06:18:53.881Z,-3.07
2019-02-14T06:22:07.669Z,-3.05
2019-02-14T06:25:21.273Z,-3.04
2019-02-14T06:28:35.101Z,-3.03
2019-02-14T06:31:48.584Z,-3.00
2019-02-14T06:35:02.282Z,-2.97
2019-02-14T06:38:15.827Z,-2.99
2019-02-14T06:41:29.369Z,-2.99
2019-02-14T06:44:42.838Z,-3.09
2019-02-14T06:47:56.323Z,-3.11
2019-02-14T06:51:09.811Z,-3.17
2019-02-14T06:54:23.306Z,-3.13
2019-02-14T06:57:36.779Z,-3.07
2019-02-14T07:00:50.594Z,-3.01
2019-02-14T07:04:04.332Z,-2.99
2019-02-14T07:07:18.903Z,-2.96
2019-02-14T07:10:32.611Z,-3.05
2019-02-14T07:13:46.403Z,-3.14
2019-02-14T07:17:00.240Z,-3.14
2019-02-14T07:20:14.134Z,-3.12
2019-02-14T07:23:27.656Z,-3.19
2019-02-14T07:26:41.448Z,-3.26
2019-02-14T07:29:54.925Z,-3.24
2019-02-14T07:33:08.627Z,-3.16
2019-02-14T07:36:22.154Z,-3.21
2019-02-14T07:39:35.641Z,-3.07
2019-02-14T07:42:49.547Z,-2.95
2019-02-14T07:46:03.201Z,-3.03
2019-02-14T07:49:17.808Z,-2.97
2019-02-14T07:52:32.584Z,-2.98
2019-02-14T07:55:46.338Z,-2.81
2019-02-14T07:59:00.261Z,-2.70
2019-02-14T08:02:13.818Z,-2.63
2019-02-14T08:05:27.580Z,-2.57
2019-02-14T08:08:41.071Z,-2.53
2019-02-14T08:11:54.587Z,-2.38
2019-02-14T08:15:10.366Z,-2.25
2019-02-14T08:18:24.238Z,-2.16
2019-02-14T08:21:38.031Z,-2.02
2019-02-14T08:24:51.923Z,-1.94
2019-02-14T08:28:06.050Z,-1.78
2019-02-14T08:31:22.020Z,-1.58
2019-02-14T08:34:35.814Z,-1.40
2019-02-14T08:37:49.559Z,-1.15
2019-02-14T08:41:03.229Z,-0.95
2019-02-14T08:44:16.719Z,-0.69
2019-02-14T08:47:33.891Z,-0.45
2019-02-14T08:50:48.632Z,-0.22
2019-02-14T08:54:02.228Z,0.02
2019-02-14T08:57:19.331Z,0.19
2019-02-14T09:00:33.101Z,0.46
2019-02-14T09:03:50.633Z,0.68
2019-02-14T09:07:04.530Z,0.90
2019-02-14T09:10:18.120Z,1.15
2019-02-14T09:13:31.892Z,1.41
2019-02-14T09:16:46.055Z,1.68
2019-02-14T09:20:00.297Z,1.93
2019-02-14T09:23:14.713Z,2.26
2019-02-14T09:26:28.944Z,2.59
2019-02-14T09:29:42.478Z,2.85
2019-02-14T09:32:56.003Z,3.02
2019-02-14T09:36:09.478Z,3.30
2019-02-14T09:39:22.958Z,3.47
2019-02-14T09:42:36.739Z,3.67
2019-02-14T09:45:50.839Z,3.83
2019-02-14T09:49:04.764Z,4.10
2019-02-14T09:52:18.240Z,4.52
2019-02-14T09:55:32.011Z,4.96
2019-02-14T09:58:45.510Z,5.39
2019-02-14T10:01:59.450Z,5.82
2019-02-14T10:05:13.982Z,6.11
2019-02-14T10:08:27.515Z,6.44
2019-02-14T10:11:41.114Z,6.75
2019-02-14T10:14:54.864Z,6.99
2019-02-14T10:18:08.455Z,7.23
2019-02-14T10:21:22.466Z,7.66
2019-02-14T10:24:35.949Z,8.07
2019-02-14T10:27:50.118Z,8.42
2019-02-14T10:31:04.496Z,8.57
2019-02-14T10:34:18.700Z,8.72
2019-02-14T10:37:32.774Z,8.97
2019-02-14T10:40:46.327Z,9.25
2019-02-14T10:44:00.082Z,9.72
2019-02-14T10:47:13.577Z,9.93
2019-02-14T10:50:27.053Z,10.28
2019-02-14T10:53:40.521Z,10.56
2019-02-14T10:56:54.326Z,10.74
2019-02-14T11:00:16.337Z,11.08
2019-02-14T11:03:30.100Z,11.34
2019-02-14T11:06:44.004Z,11.69
2019-02-14T11:09:57.475Z,12.21
2019-02-14T11:13:10.955Z,12.42
2019-02-14T11:16:24.674Z,12.81
2019-02-14T11:19:38.516Z,13.05
2019-02-14T11:22:51.994Z,13.31
2019-02-14T11:26:05.679Z,13.18
2019-02-14T11:29:19.458Z,13.11
2019-02-14T11:32:33.075Z,13.30
2019-02-14T11:35:47.197Z,13.73
2019-02-14T11:39:00.791Z,14.27
2019-02-14T11:42:14.632Z,13.64
2019-02-14T11:45:28.665Z,13.57
2019-02-14T11:48:42.148Z,14.04
2019-02-14T11:51:55.638Z,14.30
2019-02-14T11:55:09.349Z,13.38
2019-02-14T11:58:23.147Z,13.83
2019-02-14T12:01:37.026Z,14.24
2019-02-14T12:04:51.115Z,14.44
2019-02-14T12:08:04.877Z,15.13
2019-02-14T12:11:18.428Z,15.74
2019-02-14T12:14:33.212Z,16.47
2019-02-14T12:17:46.868Z,16.62
2019-02-14T12:21:00.764Z,16.66
2019-02-14T12:24:14.272Z,16.76
2019-02-14T12:27:27.774Z,16.40
2019-02-14T12:31:01.836Z,16.61
2019-02-14T12:34:15.319Z,17.18
2019-02-14T12:37:28.810Z,17.28
2019-02-14T12:40:42.326Z,17.32
2019-02-14T12:43:55.813Z,17.10
2019-02-14T12:47:09.737Z,17.21
2019-02-14T12:50:23.222Z,17.31
2019-02-14T12:53:36.750Z,16.26
2019-02-14T12:56:50.409Z,15.31
2019-02-14T13:00:05.924Z,14.93
2019-02-14T13:03:19.441Z,14.70
2019-02-14T13:06:33.251Z,14.76
2019-02-14T13:09:46.845Z,14.96
2019-02-14T13:13:00.335Z,15.14
2019-02-14T13:16:14.018Z,15.45
2019-02-14T13:19:27.915Z,15.70
2019-02-14T13:22:41.395Z,15.72
2019-02-14T13:25:55.243Z,15.95
2019-02-14T13:29:08.833Z,16.25
2019-02-14T13:32:22.323Z,16.60
2019-02-14T13:35:35.816Z,16.98
2019-02-14T13:38:49.296Z,17.41
2019-02-14T13:42:03.213Z,17.33
2019-02-14T13:45:19.441Z,17.32
2019-02-14T13:48:32.935Z,16.55
2019-02-14T13:51:46.830Z,17.15
2019-02-14T13:55:00.343Z,17.43
2019-02-14T13:58:15.601Z,17.43
2019-02-14T14:01:29.421Z,17.69
2019-02-14T14:04:44.768Z,17.00
2019-02-14T14:07:58.771Z,17.18
2019-02-14T14:11:12.256Z,17.21
2019-02-14T14:14:25.745Z,16.65
2019-02-14T14:17:39.371Z,15.83
2019-02-14T14:20:52.865Z,15.08
2019-02-14T14:24:06.389Z,14.49
2019-02-14T14:27:20.521Z,13.89
2019-02-14T14:30:35.357Z,13.65
2019-02-14T14:33:50.301Z,14.06
2019-02-14T14:37:05.044Z,13.78
2019-02-14T14:40:20.401Z,13.39
2019-02-14T14:43:40.002Z,13.03
2019-02-14T14:47:02.202Z,12.54
2019-02-14T14:50:15.740Z,12.30
2019-02-14T14:53:29.456Z,12.17
2019-02-14T14:56:43.331Z,11.93
2019-02-14T14:59:56.882Z,11.71
2019-02-14T15:03:10.362Z,11.44
2019-02-14T15:06:24.083Z,11.03
2019-02-14T15:09:37.673Z,10.81
2019-02-14T15:12:51.259Z,10.59
2019-02-14T15:16:05.332Z,10.58
2019-02-14T15:19:19.261Z,10.51
2019-02-14T15:22:33.343Z,10.36
2019-02-14T15:25:47.164Z,10.15
2019-02-14T15:29:00.752Z,9.94
2019-02-14T15:32:14.574Z,9.51
2019-02-14T15:35:28.161Z,8.91
2019-02-14T15:38:46.580Z,8.31
2019-02-14T15:42:00.211Z,8.12
2019-02-14T15:45:14.047Z,8.04
2019-02-14T15:48:28.404Z,8.07
2019-02-14T15:51:43.805Z,7.86
2019-02-14T15:54:58.196Z,7.69
2019-02-14T15:58:12.976Z,7.34
2019-02-14T16:01:26.748Z,7.29
2019-02-14T16:04:40.230Z,7.16
2019-02-14T16:07:55.233Z,7.09
2019-02-14T16:11:10.155Z,7.10
2019-02-14T16:14:24.413Z,7.13
2019-02-14T16:17:37.900Z,7.12
2019-02-14T16:20:51.472Z,6.99
2019-02-14T16:24:05.266Z,6.83
2019-02-14T16:27:19.159Z,6.67
2019-02-14T16:30:33.396Z,6.52
2019-02-14T16:33:47.221Z,6.40
2019-02-14T16:37:00.810Z,6.28
2019-02-14T16:40:14.544Z,5.98
2019-02-14T16:43:28.414Z,5.78
2019-02-14T16:46:42.175Z,5.64
2019-02-14T16:49:55.955Z,5.48
2019-02-14T16:53:09.433Z,5.35
2019-02-14T16:56:23.004Z,5.23
2019-02-14T16:59:36.489Z,5.06
2019-02-14T17:02:49.959Z,4.85
2019-02-14T17:06:04.138Z,4.70
2019-02-14T17:09:17.623Z,4.51
2019-02-14T17:12:31.102Z,4.38
2019-02-14T17:15:44.588Z,4.28
2019-02-14T17:18:58.083Z,4.20
2019-02-14T17:22:11.821Z,4.11
2019-02-14T17:25:25.903Z,3.98
2019-02-14T17:28:39.424Z,3.85
2019-02-14T17:31:53.176Z,3.72
2019-02-14T17:35:07.094Z,3.55
2019-02-14T17:38:20.581Z,3.44
2019-02-14T17:41:35.186Z,3.27
2019-02-14T17:44:48.681Z,3.06
2019-02-14T17:48:02.574Z,2.92
2019-02-14T17:51:16.233Z,2.82
2019-02-14T17:54:29.704Z,2.64
2019-02-14T17:57:43.291Z,2.59
2019-02-14T18:00:56.764Z,2.58
2019-02-14T18:04:10.246Z,2.59
2019-02-14T18:07:24.409Z,2.42
2019-02-14T18:10:38.003Z,2.28
2019-02-14T18:13:52.368Z,2.25
2019-02-14T18:17:06.181Z,2.24
2019-02-14T18:20:20.344Z,2.16
2019-02-14T18:23:33.832Z,2.04
2019-02-14T18:26:47.432Z,1.99
2019-02-14T18:30:01.189Z,1.96
2019-02-14T18:33:15.073Z,1.71
2019-02-14T18:36:28.940Z,1.45
2019-02-14T18:39:42.533Z,1.47
2019-02-14T18:42:56.356Z,1.56
2019-02-14T18:46:09.837Z,1.49
2019-02-14T18:49:23.408Z,1.47
2019-02-14T18:52:37.007Z,1.39
2019-02-14T18:55:50.495Z,1.32
2019-02-14T18:59:04.066Z,1.29
2019-02-14T19:02:17.541Z,1.19
2019-02-14T19:05:31.088Z,1.11
2019-02-14T19:08:44.774Z,1.08
2019-02-14T19:11:58.418Z,1.05
2019-02-14T19:15:12.109Z,1.09
2019-02-14T19:18:25.715Z,1.11
2019-02-14T19:21:40.926Z,1.01
2019-02-14T19:24:54.858Z,0.91
2019-02-14T19:28:09.449Z,0.82
2019-02-14T19:31:23.265Z,0.79
2019-02-14T19:34:37.111Z,0.70
2019-02-14T19:37:50.686Z,0.61
2019-02-14T19:41:04.575Z,0.65
2019-02-14T19:44:18.124Z,0.59
2019-02-14T19:47:31.698Z,0.59
2019-02-14T19:50:45.332Z,0.44
2019-02-14T19:53:59.132Z,0.35
2019-02-14T19:57:12.608Z,0.30
2019-02-14T20:00:26.129Z,0.23
2019-02-14T20:03:40.397Z,0.20
2019-02-14T20:06:53.866Z,0.27
2019-02-14T20:10:08.744Z,0.31
2019-02-14T20:13:22.218Z,0.11
2019-02-14T20:16:36.654Z,-0.01
2019-02-14T20:19:50.601Z,0.03
2019-02-14T20:23:04.598Z,0.05
2019-02-14T20:26:18.100Z,0.08
2019-02-14T20:29:32.096Z,0.07
2019-02-14T20:32:45.734Z,0.04
2019-02-14T20:35:59.305Z,0.09
2019-02-14T20:39:13.129Z,0.13
2019-02-14T20:42:26.720Z,0.14
2019-02-14T20:45:40.685Z,-0.04
2019-02-14T20:48:54.435Z,-0.05
2019-02-14T20:52:07.920Z,-0.08
2019-02-14T20:55:23.074Z,-0.06
2019-02-14T20:58:36.674Z,-0.06
2019-02-14T21:01:50.165Z,-0.07
2019-02-14T21:05:04.303Z,-0.25
2019-02-14T21:08:17.786Z,-0.32
2019-02-14T21:11:31.492Z,-0.39
2019-02-14T21:14:45.082Z,-0.47
2019-02-14T21:17:58.629Z,-0.37
2019-02-14T21:21:12.141Z,-0.58
2019-02-14T21:24:25.680Z,-0.66
2019-02-14T21:27:39.240Z,-0.74
2019-02-14T21:30:52.878Z,-0.59
2019-02-14T21:34:06.858Z,-0.56
2019-02-14T21:37:20.440Z,-0.52
2019-02-14T21:40:34.203Z,-0.48
2019-02-14T21:43:47.731Z,-0.44
2019-02-14T21:47:01.982Z,-0.55
2019-02-14T21:50:15.680Z,-0.52
2019-02-14T21:53:29.276Z,-0.55
2019-02-14T21:56:43.395Z,-0.51
2019-02-14T21:59:56.887Z,-0.50
2019-02-14T22:03:10.475Z,-0.69
2019-02-14T22:06:24.330Z,-0.80
2019-02-14T22:09:37.808Z,-0.73
2019-02-14T22:12:51.420Z,-0.72
2019-02-14T22:16:07.674Z,-0.69
2019-02-14T22:19:21.192Z,-0.66
2019-02-14T22:22:34.777Z,-0.78
2019-02-14T22:25:48.400Z,-0.75
2019-02-14T22:29:02.196Z,-0.76
2019-02-14T22:32:15.689Z,-0.73
2019-02-14T22:35:29.182Z,-0.75
2019-02-14T22:38:43.837Z,-0.67
2019-02-14T22:41:57.327Z,-0.72
2019-02-14T22:45:11.143Z,-0.80
2019-02-14T22:48:24.874Z,-0.89
2019-02-14T22:51:38.683Z,-0.89
2019-02-14T22:54:52.268Z,-0.93
2019-02-14T22:58:05.767Z,-0.89
2019-02-14T23:01:19.566Z,-0.89
2019-02-14T23:04:33.038Z,-0.87
2019-02-14T23:07:46.878Z,-0.84
2019-02-14T23:11:00.375Z,-0.83
2019-02-14T23:14:13.849Z,-1.01
2019-02-14T23:17:27.327Z,-1.04
2019-02-14T23:20:40.941Z,-0.97
2019-02-14T23:23:54.411Z,-1.10
2019-02-14T23:27:08.004Z,-1.04
2019-02-14T23:30:21.484Z,-1.08
2019-02-14T23:33:34.971Z,-1.01
2019-02-14T23:36:48.679Z,-0.96
2019-02-14T23:40:02.382Z,-0.97
2019-02-14T23:43:15.878Z,-1.13
2019-02-14T23:46:29.366Z,-1.29
2019-02-14T23:49:43.356Z,-1.19
2019-02-14T23:52:56.848Z,-1.19
2019-02-14T23:56:10.346Z,-1.17
2019-02-14T23:59:23.820Z,-1.16
